Time;durP1;ratioP1;P1;durP2;ratioP2;P2;SDS_P1;SDS_P2;PMS_P1;PMS_P2;Temp;Humidity;BMP_temperature;BMP_pressure;BME280_temperature;BME280_humidity;BME280_pressure;Samples;Min_cycle;Max_cycle;Signal;HPM_P1;HPM_P2
2023/01/23 00:01:34;;;;;;;0.10;0.10;;;;;;;;;;4977435;28;20252;-77
2023/01/23 00:04:02;;;;;;;0.00;0.00;;;;;;;;;;4976646;28;20600;-77
2023/01/23 00:06:31;;;;;;;0.00;0.00;;;;;;;;;;4976181;28;20671;-77
2023/01/23 00:09:00;;;;;;;0.00;0.00;;;;;;;;;;4975436;28;20226;-77
2023/01/23 00:11:30;;;;;;;0.00;0.00;;;;;;;;;;4973351;28;20205;-77
2023/01/23 00:14:01;;;;;;;0.00;0.00;;;;;;;;;;4977362;28;20210;-77
2023/01/23 00:16:31;;;;;;;0.00;0.00;;;;;;;;;;4976636;28;20226;-78
2023/01/23 00:18:59;;;;;;;0.00;0.00;;;;;;;;;;4977544;28;20236;-77
2023/01/23 00:21:29;;;;;;;0.00;0.00;;;;;;;;;;4977216;28;20202;-77
2023/01/23 00:24:00;;;;;;;0.00;0.00;;;;;;;;;;4975809;28;20218;-77
2023/01/23 00:26:31;;;;;;;0.00;0.00;;;;;;;;;;4975639;28;20205;-77
2023/01/23 00:29:01;;;;;;;0.00;0.00;;;;;;;;;;4958129;28;20719;-77
2023/01/23 00:31:30;;;;;;;0.00;0.00;;;;;;;;;;4958590;29;20203;-77
2023/01/23 00:33:59;;;;;;;0.00;0.00;;;;;;;;;;4957842;29;20214;-77
2023/01/23 00:36:29;;;;;;;0.00;0.00;;;;;;;;;;4958409;28;20348;-77
2023/01/23 00:38:57;;;;;;;0.00;0.00;;;;;;;;;;4976658;28;20233;-77
2023/01/23 00:41:26;;;;;;;0.00;0.00;;;;;;;;;;4977061;28;20213;-77
2023/01/23 00:43:54;;;;;;;0.00;0.00;;;;;;;;;;4976626;28;20209;-77
2023/01/23 00:46:24;;;;;;;0.00;0.00;;;;;;;;;;4977100;28;20687;-77
2023/01/23 00:48:53;;;;;;;0.00;0.00;;;;;;;;;;4976664;28;20767;-77
2023/01/23 00:51:21;;;;;;;0.00;0.00;;;;;;;;;;4975998;28;20215;-77
2023/01/23 00:53:50;;;;;;;0.00;0.00;;;;;;;;;;4976976;28;20233;-77
2023/01/23 00:56:18;;;;;;;0.00;0.00;;;;;;;;;;4976626;28;20226;-77
2023/01/23 00:58:47;;;;;;;0.00;0.00;;;;;;;;;;4975289;28;20226;-77
2023/01/23 01:01:16;;;;;;;0.00;0.00;;;;;;;;;;4976906;28;20707;-77
2023/01/23 01:03:46;;;;;;;0.00;0.00;;;;;;;;;;4976934;28;20665;-77
2023/01/23 01:06:14;;;;;;;0.00;0.00;;;;;;;;;;4976033;28;20212;-77
2023/01/23 01:08:42;;;;;;;0.00;0.00;;;;;;;;;;4975235;28;20265;-77
2023/01/23 01:11:11;;;;;;;0.00;0.00;;;;;;;;;;4975634;28;20684;-77
2023/01/23 01:13:39;;;;;;;0.00;0.00;;;;;;;;;;4976578;28;20218;-77
2023/01/23 01:16:08;;;;;;;0.00;0.00;;;;;;;;;;4976282;28;20660;-77
2023/01/23 01:18:37;;;;;;;0.00;0.00;;;;;;;;;;4975675;28;20710;-77
2023/01/23 01:21:08;;;;;;;0.00;0.00;;;;;;;;;;4975235;28;20211;-77
2023/01/23 01:23:37;;;;;;;0.00;0.00;;;;;;;;;;4976065;28;20252;-77
2023/01/23 01:26:06;;;;;;;0.00;0.00;;;;;;;;;;4976355;28;20285;-77
2023/01/23 01:28:36;;;;;;;0.00;0.00;;;;;;;;;;4976420;28;20790;-77
2023/01/23 01:31:07;;;;;;;0.00;0.00;;;;;;;;;;4975194;28;20579;-77
2023/01/23 01:33:35;;;;;;;0.00;0.00;;;;;;;;;;4974447;28;20210;-78
2023/01/23 01:36:04;;;;;;;0.00;0.00;;;;;;;;;;4976000;28;20285;-77
2023/01/23 01:38:34;;;;;;;0.00;0.00;;;;;;;;;;4975672;28;20229;-77
2023/01/23 01:41:02;;;;;;;0.00;0.00;;;;;;;;;;4974969;28;20230;-77
2023/01/23 01:43:30;;;;;;;0.00;0.00;;;;;;;;;;4975746;28;20355;-77
2023/01/23 01:46:07;;;;;;;0.10;0.10;;;;;;;;;;4975672;28;20200;-77
2023/01/23 01:48:37;;;;;;;0.00;0.00;;;;;;;;;;4975700;28;20698;-77
2023/01/23 01:51:08;;;;;;;0.00;0.00;;;;;;;;;;4974910;28;20624;-77
2023/01/23 01:53:39;;;;;;;0.00;0.00;;;;;;;;;;4976055;28;20587;-77
2023/01/23 01:56:08;;;;;;;0.00;0.00;;;;;;;;;;4975370;28;20202;-77
2023/01/23 01:58:37;;;;;;;0.00;0.00;;;;;;;;;;4975625;28;20257;-77
2023/01/23 02:01:05;;;;;;;0.00;0.00;;;;;;;;;;4974540;28;20202;-77
2023/01/23 02:03:34;;;;;;;0.00;0.00;;;;;;;;;;4975878;28;20205;-77
2023/01/23 02:06:02;;;;;;;0.00;0.00;;;;;;;;;;4974376;28;20201;-77
2023/01/23 02:08:34;;;;;;;0.00;0.00;;;;;;;;;;4975847;28;20280;-77
2023/01/23 02:11:05;;;;;;;0.00;0.00;;;;;;;;;;4972738;28;20202;-77
2023/01/23 02:13:35;;;;;;;0.00;0.00;;;;;;;;;;4975920;28;20218;-77
2023/01/23 02:16:05;;;;;;;0.00;0.00;;;;;;;;;;4974943;28;20675;-77
2023/01/23 02:18:34;;;;;;;0.10;0.10;;;;;;;;;;4975258;28;20755;-77
2023/01/23 02:21:04;;;;;;;0.00;0.00;;;;;;;;;;4974039;28;20242;-77
2023/01/23 02:23:37;;;;;;;0.00;0.00;;;;;;;;;;4975104;28;20205;-77
2023/01/23 02:26:08;;;;;;;0.00;0.00;;;;;;;;;;4975437;28;20206;-77
2023/01/23 02:28:37;;;;;;;0.00;0.00;;;;;;;;;;4975077;28;20299;-77
2023/01/23 02:31:06;;;;;;;0.00;0.00;;;;;;;;;;4974249;28;20256;-77
2023/01/23 02:33:46;;;;;;;0.10;0.10;;;;;;;;;;4975195;28;20229;-77
2023/01/23 02:36:14;;;;;;;0.00;0.00;;;;;;;;;;4974056;28;20256;-77
2023/01/23 02:38:47;;;;;;;0.03;0.03;;;;;;;;;;4975515;28;20645;-77
2023/01/23 02:41:18;;;;;;;0.00;0.00;;;;;;;;;;4974334;28;20702;-77
2023/01/23 02:43:47;;;;;;;0.00;0.00;;;;;;;;;;4974267;28;20629;-77
2023/01/23 02:46:17;;;;;;;0.00;0.00;;;;;;;;;;4974916;28;20214;-77
2023/01/23 02:48:46;;;;;;;0.00;0.00;;;;;;;;;;4972096;28;20237;-77
2023/01/23 02:51:15;;;;;;;0.10;0.10;;;;;;;;;;4974975;28;20302;-77
2023/01/23 02:53:44;;;;;;;0.00;0.00;;;;;;;;;;4974766;28;20209;-76
2023/01/23 02:56:12;;;;;;;0.00;0.00;;;;;;;;;;4974424;28;20229;-76
2023/01/23 03:01:28;;;;;;;0.07;0.07;;;;;;;;;;4974892;28;20276;-77
2023/01/23 03:03:57;;;;;;;0.00;0.00;;;;;;;;;;4974283;28;20316;-76
2023/01/23 03:06:25;;;;;;;0.00;0.00;;;;;;;;;;4974610;28;20249;-76
2023/01/23 03:08:54;;;;;;;0.00;0.00;;;;;;;;;;4973533;28;20272;-77
2023/01/23 03:11:24;;;;;;;0.00;0.00;;;;;;;;;;4974195;28;20280;-76
2023/01/23 03:13:54;;;;;;;0.00;0.00;;;;;;;;;;4974445;28;20206;-76
2023/01/23 03:16:22;;;;;;;0.00;0.00;;;;;;;;;;4974131;28;20239;-77
2023/01/23 03:18:51;;;;;;;0.00;0.00;;;;;;;;;;4974445;28;20229;-76
2023/01/23 03:21:22;;;;;;;0.00;0.00;;;;;;;;;;4973943;28;20657;-77
2023/01/23 03:23:51;;;;;;;0.00;0.00;;;;;;;;;;4974546;28;20258;-76
2023/01/23 03:26:19;;;;;;;0.00;0.00;;;;;;;;;;4974393;28;20730;-76
2023/01/23 03:31:35;;;;;;;0.00;0.00;;;;;;;;;;4973218;28;20210;-76
2023/01/23 03:34:03;;;;;;;0.00;0.00;;;;;;;;;;4974118;28;20294;-76
2023/01/23 03:36:36;;;;;;;0.00;0.00;;;;;;;;;;4974454;28;20251;-76
2023/01/23 03:41:52;;;;;;;0.00;0.00;;;;;;;;;;4973699;28;20210;-76
2023/01/23 03:44:20;;;;;;;0.00;0.00;;;;;;;;;;4973441;28;20206;-76
2023/01/23 03:46:51;;;;;;;0.00;0.00;;;;;;;;;;4974267;28;20213;-76
2023/01/23 03:49:20;;;;;;;0.00;0.00;;;;;;;;;;4974754;28;20293;-76
2023/01/23 03:51:48;;;;;;;0.00;0.00;;;;;;;;;;4973437;28;20210;-76
2023/01/23 03:54:17;;;;;;;0.10;0.10;;;;;;;;;;4974020;28;20253;-77
2023/01/23 03:56:45;;;;;;;0.00;0.00;;;;;;;;;;4975173;28;20217;-77
2023/01/23 03:59:13;;;;;;;0.00;0.00;;;;;;;;;;4977182;28;20332;-77
2023/01/23 04:01:42;;;;;;;0.03;0.03;;;;;;;;;;4976757;28;20264;-77
2023/01/23 04:04:12;;;;;;;0.00;0.00;;;;;;;;;;4977612;28;20206;-77
2023/01/23 04:06:40;;;;;;;0.00;0.00;;;;;;;;;;4978342;28;20213;-77
2023/01/23 04:09:09;;;;;;;0.00;0.00;;;;;;;;;;4977748;28;20368;-76
2023/01/23 04:11:37;;;;;;;0.00;0.00;;;;;;;;;;4976173;28;20206;-76
2023/01/23 04:14:06;;;;;;;0.00;0.00;;;;;;;;;;4977256;28;20209;-76
2023/01/23 04:16:34;;;;;;;0.00;0.00;;;;;;;;;;4978017;28;20213;-76
2023/01/23 04:19:03;;;;;;;0.00;0.00;;;;;;;;;;4977117;28;20234;-77
2023/01/23 04:21:33;;;;;;;0.10;0.10;;;;;;;;;;4975103;28;20206;-76
2023/01/23 04:24:01;;;;;;;0.00;0.00;;;;;;;;;;4976772;28;20265;-76
2023/01/23 04:26:30;;;;;;;0.10;0.10;;;;;;;;;;4977292;28;20548;-76
2023/01/23 04:28:58;;;;;;;0.00;0.00;;;;;;;;;;4977062;28;20734;-76
2023/01/23 04:31:27;;;;;;;0.00;0.00;;;;;;;;;;4976050;28;20206;-76
2023/01/23 04:33:55;;;;;;;0.00;0.00;;;;;;;;;;4976779;28;20207;-76
2023/01/23 04:36:23;;;;;;;0.00;0.00;;;;;;;;;;4975625;28;20646;-76
2023/01/23 04:38:53;;;;;;;0.10;0.10;;;;;;;;;;4976817;28;20284;-76
2023/01/23 04:41:22;;;;;;;0.10;0.10;;;;;;;;;;4975603;28;20237;-76
2023/01/23 04:43:51;;;;;;;0.00;0.00;;;;;;;;;;4976814;28;20256;-76
2023/01/23 04:46:20;;;;;;;0.00;0.00;;;;;;;;;;4976514;28;20301;-76
2023/01/23 04:48:48;;;;;;;0.00;0.00;;;;;;;;;;4975524;28;20222;-76
2023/01/23 04:51:16;;;;;;;0.00;0.00;;;;;;;;;;4975956;28;20210;-76
2023/01/23 04:53:45;;;;;;;0.00;0.00;;;;;;;;;;4976240;28;20676;-76
2023/01/23 04:56:15;;;;;;;0.00;0.00;;;;;;;;;;4976668;28;20253;-76
2023/01/23 04:58:43;;;;;;;0.00;0.00;;;;;;;;;;4976315;28;20284;-76
2023/01/23 05:01:11;;;;;;;0.00;0.00;;;;;;;;;;4975639;28;20241;-76
2023/01/23 05:03:40;;;;;;;0.00;0.00;;;;;;;;;;4975363;28;20239;-76
2023/01/23 05:06:08;;;;;;;0.00;0.00;;;;;;;;;;4976437;28;20636;-76
2023/01/23 05:08:37;;;;;;;0.00;0.00;;;;;;;;;;4975325;28;20273;-78
2023/01/23 05:11:05;;;;;;;0.00;0.00;;;;;;;;;;4973727;28;20238;-76
2023/01/23 05:13:35;;;;;;;0.00;0.00;;;;;;;;;;4976200;28;20296;-76
2023/01/23 05:16:04;;;;;;;0.00;0.00;;;;;;;;;;4975129;28;20214;-76
2023/01/23 05:18:32;;;;;;;0.00;0.00;;;;;;;;;;4975452;28;20280;-76
2023/01/23 05:21:00;;;;;;;0.00;0.00;;;;;;;;;;4975342;28;20210;-76
2023/01/23 05:23:29;;;;;;;0.10;0.10;;;;;;;;;;4976090;28;20268;-76
2023/01/23 05:25:57;;;;;;;0.10;0.10;;;;;;;;;;4976178;28;20253;-76
2023/01/23 05:28:26;;;;;;;0.00;0.00;;;;;;;;;;4972869;28;20674;-76
2023/01/23 05:30:55;;;;;;;0.00;0.00;;;;;;;;;;4973964;28;20210;-76
2023/01/23 05:33:24;;;;;;;0.00;0.00;;;;;;;;;;4976041;28;20216;-76
2023/01/23 05:35:52;;;;;;;0.00;0.00;;;;;;;;;;4976460;28;20252;-76
2023/01/23 05:38:21;;;;;;;0.00;0.00;;;;;;;;;;4975515;28;20249;-76
2023/01/23 05:40:49;;;;;;;0.00;0.00;;;;;;;;;;4975837;28;20245;-76
2023/01/23 05:43:18;;;;;;;0.00;0.00;;;;;;;;;;4974049;28;20206;-76
2023/01/23 05:45:46;;;;;;;0.00;0.00;;;;;;;;;;4976239;28;20253;-76
2023/01/23 05:48:16;;;;;;;0.00;0.00;;;;;;;;;;4974969;28;20274;-76
2023/01/23 05:50:44;;;;;;;0.00;0.00;;;;;;;;;;4976466;28;20749;-77
2023/01/23 05:53:13;;;;;;;0.00;0.00;;;;;;;;;;4975911;28;20272;-77
2023/01/23 05:55:41;;;;;;;0.00;0.00;;;;;;;;;;4975246;28;20268;-76
2023/01/23 05:58:09;;;;;;;0.00;0.00;;;;;;;;;;4972721;28;20257;-76
2023/01/23 06:00:38;;;;;;;0.00;0.00;;;;;;;;;;4974644;28;20210;-76
2023/01/23 06:03:06;;;;;;;0.00;0.00;;;;;;;;;;4970992;28;20206;-77
2023/01/23 06:05:36;;;;;;;0.03;0.03;;;;;;;;;;4975573;28;20237;-76
2023/01/23 06:08:05;;;;;;;0.00;0.00;;;;;;;;;;4971612;28;20253;-77
2023/01/23 06:10:33;;;;;;;0.00;0.00;;;;;;;;;;4971829;28;20222;-77
2023/01/23 06:13:02;;;;;;;0.00;0.00;;;;;;;;;;4970040;28;20229;-76
2023/01/23 06:15:30;;;;;;;0.00;0.00;;;;;;;;;;4974391;28;20621;-77
2023/01/23 06:17:58;;;;;;;0.00;0.00;;;;;;;;;;4972684;28;20702;-76
2023/01/23 06:20:27;;;;;;;0.00;0.00;;;;;;;;;;4974347;28;20598;-77
2023/01/23 06:22:57;;;;;;;0.00;0.00;;;;;;;;;;4978236;28;20211;-77
2023/01/23 06:25:25;;;;;;;0.00;0.00;;;;;;;;;;4975419;28;20205;-77
2023/01/23 06:27:54;;;;;;;0.10;0.10;;;;;;;;;;4971685;28;20245;-77
2023/01/23 06:30:22;;;;;;;0.00;0.00;;;;;;;;;;4974322;28;20205;-77
2023/01/23 06:32:51;;;;;;;0.00;0.00;;;;;;;;;;4973618;28;20205;-76
2023/01/23 06:35:19;;;;;;;0.00;0.00;;;;;;;;;;4971925;28;20258;-76
2023/01/23 06:37:48;;;;;;;0.00;0.00;;;;;;;;;;4974583;28;20318;-77
2023/01/23 06:40:18;;;;;;;0.00;0.00;;;;;;;;;;4974344;28;20284;-77
2023/01/23 06:42:49;;;;;;;0.00;0.00;;;;;;;;;;4974238;28;20651;-77
2023/01/23 06:45:18;;;;;;;0.00;0.00;;;;;;;;;;4975005;28;20218;-77
2023/01/23 06:47:47;;;;;;;0.00;0.00;;;;;;;;;;4969809;28;20258;-77
2023/01/23 06:50:15;;;;;;;0.00;0.00;;;;;;;;;;4974282;28;20635;-77
2023/01/23 06:52:43;;;;;;;0.00;0.00;;;;;;;;;;4974515;28;20635;-77
2023/01/23 06:55:12;;;;;;;0.00;0.00;;;;;;;;;;4974232;28;20604;-77
2023/01/23 06:57:43;;;;;;;0.00;0.00;;;;;;;;;;4974968;28;20285;-77
2023/01/23 07:00:12;;;;;;;0.00;0.00;;;;;;;;;;4955535;29;20235;-77
2023/01/23 07:02:40;;;;;;;0.00;0.00;;;;;;;;;;4968610;28;20209;-77
2023/01/23 07:05:12;;;;;;;0.00;0.00;;;;;;;;;;4974734;28;20644;-77
2023/01/23 07:07:41;;;;;;;0.10;0.10;;;;;;;;;;4974649;28;20202;-77
2023/01/23 07:10:10;;;;;;;0.00;0.00;;;;;;;;;;4974322;28;20579;-77
2023/01/23 07:12:38;;;;;;;0.00;0.00;;;;;;;;;;4973031;28;20205;-77
2023/01/23 07:15:09;;;;;;;0.00;0.00;;;;;;;;;;4974759;28;20206;-77
2023/01/23 07:17:37;;;;;;;0.00;0.00;;;;;;;;;;4974490;28;20214;-77
2023/01/23 07:20:06;;;;;;;0.00;0.00;;;;;;;;;;4973972;28;20267;-77
2023/01/23 07:22:35;;;;;;;0.00;0.00;;;;;;;;;;4974802;28;20766;-77
2023/01/23 07:25:04;;;;;;;0.00;0.00;;;;;;;;;;4972183;28;20625;-77
2023/01/23 07:27:32;;;;;;;0.00;0.00;;;;;;;;;;4974239;28;20215;-77
2023/01/23 07:30:01;;;;;;;0.00;0.00;;;;;;;;;;4974171;28;20241;-77
2023/01/23 07:32:31;;;;;;;0.00;0.00;;;;;;;;;;4976419;28;20209;-77
2023/01/23 07:34:59;;;;;;;0.00;0.00;;;;;;;;;;4978112;28;20240;-77
2023/01/23 07:37:27;;;;;;;0.00;0.00;;;;;;;;;;4977248;28;20202;-77
2023/01/23 07:39:56;;;;;;;0.00;0.00;;;;;;;;;;4977620;28;20227;-77
2023/01/23 07:42:25;;;;;;;0.00;0.00;;;;;;;;;;4977950;28;20210;-77
2023/01/23 07:44:53;;;;;;;0.00;0.00;;;;;;;;;;4975698;28;20272;-77
2023/01/23 07:47:21;;;;;;;0.00;0.00;;;;;;;;;;4977318;28;20264;-77
2023/01/23 07:49:51;;;;;;;0.00;0.00;;;;;;;;;;4977996;28;20678;-77
2023/01/23 07:52:19;;;;;;;0.00;0.00;;;;;;;;;;4976889;28;20213;-77
2023/01/23 07:54:48;;;;;;;0.00;0.00;;;;;;;;;;4977393;28;20260;-77
2023/01/23 07:57:16;;;;;;;0.10;0.10;;;;;;;;;;4977819;28;20206;-77
2023/01/23 07:59:45;;;;;;;0.00;0.00;;;;;;;;;;4977553;28;20273;-77
2023/01/23 08:02:13;;;;;;;0.00;0.00;;;;;;;;;;4977688;28;20212;-77
2023/01/23 08:04:41;;;;;;;0.00;0.00;;;;;;;;;;4976527;28;20245;-77
2023/01/23 08:07:11;;;;;;;0.00;0.00;;;;;;;;;;4977980;28;20201;-77
2023/01/23 08:09:40;;;;;;;0.00;0.00;;;;;;;;;;4977333;28;20231;-77
2023/01/23 08:12:08;;;;;;;0.00;0.00;;;;;;;;;;4977377;28;20210;-77
2023/01/23 08:14:37;;;;;;;0.00;0.00;;;;;;;;;;4977619;28;20571;-77
2023/01/23 08:17:05;;;;;;;0.00;0.00;;;;;;;;;;4977373;28;20731;-77
2023/01/23 08:19:34;;;;;;;0.10;0.10;;;;;;;;;;4975841;28;20291;-78
2023/01/23 08:22:02;;;;;;;0.00;0.00;;;;;;;;;;4976329;28;20265;-78
2023/01/23 08:24:33;;;;;;;0.00;0.00;;;;;;;;;;4976629;28;20207;-78
2023/01/23 08:27:02;;;;;;;0.00;0.00;;;;;;;;;;4977593;28;20205;-78
2023/01/23 08:29:31;;;;;;;0.00;0.00;;;;;;;;;;4977222;28;20223;-78
2023/01/23 08:32:00;;;;;;;0.00;0.00;;;;;;;;;;4977379;28;20206;-78
2023/01/23 08:34:29;;;;;;;0.00;0.00;;;;;;;;;;4976312;28;20233;-78
2023/01/23 08:36:57;;;;;;;0.10;0.10;;;;;;;;;;4977684;28;20750;-78
2023/01/23 08:39:26;;;;;;;0.00;0.00;;;;;;;;;;4976868;28;20273;-78
2023/01/23 08:41:55;;;;;;;0.00;0.00;;;;;;;;;;4977696;28;20769;-78
2023/01/23 08:44:24;;;;;;;0.00;0.00;;;;;;;;;;4977858;28;20226;-78
2023/01/23 08:46:52;;;;;;;0.00;0.00;;;;;;;;;;4976682;28;20270;-78
2023/01/23 08:49:21;;;;;;;0.00;0.00;;;;;;;;;;4978217;28;20701;-79
2023/01/23 08:51:49;;;;;;;0.00;0.00;;;;;;;;;;4977838;28;20769;-79
2023/01/23 08:54:18;;;;;;;0.00;0.00;;;;;;;;;;4978119;28;20214;-79
2023/01/23 08:56:46;;;;;;;0.00;0.00;;;;;;;;;;4977556;28;20277;-79
2023/01/23 08:59:16;;;;;;;0.00;0.00;;;;;;;;;;4978073;28;20230;-79
2023/01/23 09:01:46;;;;;;;0.00;0.00;;;;;;;;;;4977256;28;20270;-79
2023/01/23 09:04:16;;;;;;;0.10;0.10;;;;;;;;;;4980223;28;20253;-79
2023/01/23 09:06:44;;;;;;;0.00;0.00;;;;;;;;;;4979902;28;20216;-79
2023/01/23 09:09:13;;;;;;;0.00;0.00;;;;;;;;;;4980439;28;20231;-79
2023/01/23 09:11:41;;;;;;;0.00;0.00;;;;;;;;;;4979604;28;20212;-78
2023/01/23 09:14:10;;;;;;;0.00;0.00;;;;;;;;;;4979375;28;20213;-79
2023/01/23 09:16:40;;;;;;;0.00;0.00;;;;;;;;;;4976716;28;20238;-79
2023/01/23 09:19:10;;;;;;;0.00;0.00;;;;;;;;;;4975887;28;20237;-78
2023/01/23 09:21:39;;;;;;;0.00;0.00;;;;;;;;;;4979557;28;20733;-78
2023/01/23 09:24:08;;;;;;;0.00;0.00;;;;;;;;;;4979617;28;20209;-78
2023/01/23 09:26:37;;;;;;;0.00;0.00;;;;;;;;;;4977757;28;20209;-79
2023/01/23 09:29:05;;;;;;;0.00;0.00;;;;;;;;;;4975612;28;20226;-79
2023/01/23 09:31:34;;;;;;;0.00;0.00;;;;;;;;;;4979787;28;20264;-78
2023/01/23 09:34:04;;;;;;;0.00;0.00;;;;;;;;;;4978144;28;20633;-78
2023/01/23 09:36:33;;;;;;;0.00;0.00;;;;;;;;;;4979253;28;20291;-78
2023/01/23 09:39:10;;;;;;;0.10;0.10;;;;;;;;;;4979175;28;20231;-78
2023/01/23 09:41:40;;;;;;;0.00;0.00;;;;;;;;;;4979451;28;20237;-78
2023/01/23 09:44:12;;;;;;;0.00;0.00;;;;;;;;;;4978862;28;20207;-78
2023/01/23 09:46:43;;;;;;;0.00;0.00;;;;;;;;;;4978467;28;20202;-78
2023/01/23 09:49:17;;;;;;;0.00;0.00;;;;;;;;;;4977852;28;20262;-79
2023/01/23 09:51:51;;;;;;;0.00;0.00;;;;;;;;;;4979072;28;20215;-78
2023/01/23 09:54:27;;;;;;;0.07;0.07;;;;;;;;;;4977957;28;20210;-78
2023/01/23 09:56:56;;;;;;;0.00;0.00;;;;;;;;;;4974089;28;20257;-78
2023/01/23 09:59:29;;;;;;;0.07;0.07;;;;;;;;;;4971541;28;20274;-78
2023/01/23 10:01:58;;;;;;;0.10;0.10;;;;;;;;;;4974077;28;20316;-78
2023/01/23 10:04:28;;;;;;;0.00;0.00;;;;;;;;;;4975326;28;20241;-78
2023/01/23 10:07:08;;;;;;;0.03;0.03;;;;;;;;;;4975104;28;20237;-78
2023/01/23 10:09:43;;;;;;;0.00;0.00;;;;;;;;;;4975192;28;20228;-78
2023/01/23 10:12:16;;;;;;;0.00;0.00;;;;;;;;;;4975310;28;20296;-77
2023/01/23 10:15:06;;;;;;;0.00;0.00;;;;;;;;;;4974721;28;20210;-78
2023/01/23 10:17:39;;;;;;;0.00;0.00;;;;;;;;;;4975081;28;20214;-77
2023/01/23 10:20:17;;;;;;;0.00;0.00;;;;;;;;;;4975175;28;20237;-78
2023/01/23 10:22:48;;;;;;;0.00;0.00;;;;;;;;;;4975250;28;20583;-77
2023/01/23 10:25:19;;;;;;;0.10;0.10;;;;;;;;;;4974836;28;20233;-77
2023/01/23 10:27:49;;;;;;;0.00;0.00;;;;;;;;;;4975103;28;20248;-78
2023/01/23 10:30:20;;;;;;;0.00;0.00;;;;;;;;;;4973318;28;20203;-77
2023/01/23 10:32:51;;;;;;;0.00;0.00;;;;;;;;;;4974897;28;20214;-78
2023/01/23 10:35:24;;;;;;;0.10;0.10;;;;;;;;;;4975154;28;20687;-78
2023/01/23 10:37:54;;;;;;;0.00;0.00;;;;;;;;;;4972944;28;20257;-78
2023/01/23 10:43:11;;;;;;;0.00;0.00;;;;;;;;;;4974087;28;20232;-78
2023/01/23 10:45:40;;;;;;;0.00;0.00;;;;;;;;;;4973078;28;20215;-78
2023/01/23 10:48:23;;;;;;;0.00;0.00;;;;;;;;;;4974652;28;20591;-77
2023/01/23 10:50:53;;;;;;;0.00;0.00;;;;;;;;;;4974553;28;20221;-78
2023/01/23 10:53:23;;;;;;;0.00;0.00;;;;;;;;;;4974339;28;20231;-78
2023/01/23 10:55:54;;;;;;;0.00;0.00;;;;;;;;;;4974081;28;20229;-77
2023/01/23 10:58:28;;;;;;;0.00;0.00;;;;;;;;;;4974461;28;20229;-78
2023/01/23 11:00:57;;;;;;;0.00;0.00;;;;;;;;;;4974097;28;20257;-77
2023/01/23 11:03:27;;;;;;;0.00;0.00;;;;;;;;;;4974305;28;20237;-77
2023/01/23 11:06:01;;;;;;;0.10;0.10;;;;;;;;;;4975368;28;20589;-77
2023/01/23 11:08:30;;;;;;;0.00;0.00;;;;;;;;;;4978708;28;20642;-77
2023/01/23 11:11:17;;;;;;;0.00;0.00;;;;;;;;;;4978389;28;20276;-77
2023/01/23 11:13:47;;;;;;;0.00;0.00;;;;;;;;;;4977399;28;20272;-77
2023/01/23 11:16:16;;;;;;;0.00;0.00;;;;;;;;;;4978080;28;20211;-77
2023/01/23 11:18:48;;;;;;;0.00;0.00;;;;;;;;;;4978077;28;20225;-78
2023/01/23 11:21:25;;;;;;;0.00;0.00;;;;;;;;;;4978119;28;20206;-78
2023/01/23 11:24:08;;;;;;;0.00;0.00;;;;;;;;;;4978220;28;20207;-78
2023/01/23 11:26:38;;;;;;;0.10;0.10;;;;;;;;;;4978101;28;20207;-77
2023/01/23 11:29:20;;;;;;;0.00;0.00;;;;;;;;;;4977512;28;20710;-77
2023/01/23 11:31:50;;;;;;;0.00;0.00;;;;;;;;;;4978274;28;20260;-78
2023/01/23 11:34:20;;;;;;;0.00;0.00;;;;;;;;;;4977983;28;20217;-78
2023/01/23 11:36:52;;;;;;;0.00;0.00;;;;;;;;;;4977153;28;20218;-77
2023/01/23 11:39:28;;;;;;;0.00;0.00;;;;;;;;;;4977758;28;20219;-78
2023/01/23 11:41:56;;;;;;;0.00;0.00;;;;;;;;;;4977903;28;20272;-78
2023/01/23 11:44:25;;;;;;;0.00;0.00;;;;;;;;;;4976953;28;20205;-78
2023/01/23 11:47:03;;;;;;;0.00;0.00;;;;;;;;;;4977573;28;20204;-78
2023/01/23 11:49:42;;;;;;;0.00;0.00;;;;;;;;;;4977598;28;20260;-78
2023/01/23 11:52:19;;;;;;;0.00;0.00;;;;;;;;;;4977787;28;20221;-78
2023/01/23 11:54:58;;;;;;;0.10;0.10;;;;;;;;;;4977529;28;20209;-77
2023/01/23 11:57:35;;;;;;;0.00;0.00;;;;;;;;;;4976817;28;20204;-77
2023/01/23 12:00:08;;;;;;;0.00;0.00;;;;;;;;;;4977300;28;20246;-77
2023/01/23 12:02:53;;;;;;;0.00;0.00;;;;;;;;;;4977688;28;20258;-77
2023/01/23 12:05:27;;;;;;;0.10;0.10;;;;;;;;;;4977549;28;20205;-77
2023/01/23 12:08:02;;;;;;;0.00;0.00;;;;;;;;;;4976845;28;20688;-78
2023/01/23 12:10:35;;;;;;;0.00;0.00;;;;;;;;;;4975580;28;20204;-77
2023/01/23 12:13:12;;;;;;;0.00;0.00;;;;;;;;;;4976717;28;20266;-77
2023/01/23 12:15:44;;;;;;;0.00;0.00;;;;;;;;;;4976937;28;20273;-77
2023/01/23 12:18:23;;;;;;;0.10;0.10;;;;;;;;;;4974605;28;20320;-78
2023/01/23 12:20:57;;;;;;;0.00;0.00;;;;;;;;;;4971665;28;20212;-77
2023/01/23 12:23:32;;;;;;;0.00;0.00;;;;;;;;;;4957798;28;20258;-78
2023/01/23 12:26:07;;;;;;;0.00;0.00;;;;;;;;;;4966329;28;20217;-77
2023/01/23 12:28:49;;;;;;;0.00;0.00;;;;;;;;;;4977344;28;20700;-77
2023/01/23 12:31:24;;;;;;;0.00;0.00;;;;;;;;;;4977234;28;20190;-77
2023/01/23 12:34:09;;;;;;;0.00;0.00;;;;;;;;;;4973143;28;20659;-77
2023/01/23 12:36:51;;;;;;;0.00;0.00;;;;;;;;;;4976744;28;20190;-77
2023/01/23 12:39:47;;;;;;;0.00;0.00;;;;;;;;;;4977225;28;20240;-77
2023/01/23 12:42:18;;;;;;;0.10;0.10;;;;;;;;;;4957985;29;20207;-78
2023/01/23 12:44:51;;;;;;;0.00;0.00;;;;;;;;;;4957680;29;20213;-78
2023/01/23 12:47:21;;;;;;;0.00;0.00;;;;;;;;;;4966116;28;20204;-78
2023/01/23 12:49:53;;;;;;;0.00;0.00;;;;;;;;;;4972990;28;20273;-78
2023/01/23 12:52:23;;;;;;;0.00;0.00;;;;;;;;;;4976844;28;20731;-77
2023/01/23 12:54:58;;;;;;;0.10;0.10;;;;;;;;;;4976332;28;20206;-78
2023/01/23 12:57:50;;;;;;;0.00;0.00;;;;;;;;;;4972984;28;20198;-78
2023/01/23 13:00:52;;;;;;;0.00;0.00;;;;;;;;;;4976710;28;20689;-78
2023/01/23 13:03:27;;;;;;;0.00;0.00;;;;;;;;;;4969341;28;20274;-78
2023/01/23 13:06:14;;;;;;;0.00;0.00;;;;;;;;;;4976732;28;20215;-78
2023/01/23 13:08:47;;;;;;;0.00;0.00;;;;;;;;;;4976478;28;20282;-77
2023/01/23 13:11:40;;;;;;;0.00;0.00;;;;;;;;;;4976437;28;20197;-77
2023/01/23 13:14:17;;;;;;;0.00;0.00;;;;;;;;;;4976420;28;20208;-77
2023/01/23 13:16:49;;;;;;;0.10;0.10;;;;;;;;;;4976108;28;22025;-77
2023/01/23 13:22:18;;;;;;;0.00;0.00;;;;;;;;;;4957433;28;20192;-77
2023/01/23 13:25:11;;;;;;;0.10;0.10;;;;;;;;;;4957397;29;20192;-77
2023/01/23 13:27:50;;;;;;;0.00;0.00;;;;;;;;;;4975662;28;20201;-77
2023/01/23 13:30:36;;;;;;;0.00;0.00;;;;;;;;;;4975180;28;20222;-78
2023/01/23 13:33:39;;;;;;;0.00;0.00;;;;;;;;;;4976046;28;20243;-79
2023/01/23 13:36:14;;;;;;;0.00;0.00;;;;;;;;;;4974761;28;20216;-77
2023/01/23 13:38:43;;;;;;;0.00;0.00;;;;;;;;;;4976150;28;20222;-77
2023/01/23 13:41:30;;;;;;;0.00;0.00;;;;;;;;;;4976364;28;20250;-77
2023/01/23 13:44:04;;;;;;;0.00;0.00;;;;;;;;;;4970089;28;20233;-77
2023/01/23 13:46:48;;;;;;;0.00;0.00;;;;;;;;;;4967228;28;20199;-78
2023/01/23 13:49:54;;;;;;;0.00;0.00;;;;;;;;;;4923988;29;20247;-78
2023/01/23 13:58:41;;;;;;;0.00;0.00;;;;;;;;;;4804403;29;20232;-78
2023/01/23 14:13:37;;;;;;;0.00;0.00;;;;;;;;;;4703446;30;20216;-77
2023/01/23 14:16:22;;;;;;;0.10;0.10;;;;;;;;;;4684363;30;20316;-78
2023/01/23 14:19:20;;;;;;;0.10;0.10;;;;;;;;;;4682580;30;20242;-78
2023/01/23 14:22:05;;;;;;;0.00;0.00;;;;;;;;;;4683365;30;20582;-77
2023/01/23 14:24:48;;;;;;;0.10;0.10;;;;;;;;;;4717090;30;20235;-78
2023/01/23 14:27:19;;;;;;;0.00;0.00;;;;;;;;;;4735867;30;20301;-77
2023/01/23 14:29:56;;;;;;;0.10;0.10;;;;;;;;;;4801612;29;20248;-77
2023/01/23 14:32:25;;;;;;;0.00;0.00;;;;;;;;;;4803056;29;20254;-77
2023/01/23 14:34:55;;;;;;;0.00;0.00;;;;;;;;;;4804199;29;20345;-77
2023/01/23 14:37:24;;;;;;;0.00;0.00;;;;;;;;;;4789595;29;20214;-77
2023/01/23 14:39:52;;;;;;;0.00;0.00;;;;;;;;;;4795265;29;20210;-77
2023/01/23 14:42:24;;;;;;;0.00;0.00;;;;;;;;;;4859131;29;20250;-78
2023/01/23 14:44:53;;;;;;;0.10;0.10;;;;;;;;;;4859166;29;20255;-77
2023/01/23 14:47:26;;;;;;;0.00;0.00;;;;;;;;;;4906676;29;20242;-77
2023/01/23 14:50:01;;;;;;;0.00;0.00;;;;;;;;;;4947161;28;20221;-77
2023/01/23 14:52:31;;;;;;;0.00;0.00;;;;;;;;;;4974294;28;20312;-77
2023/01/23 14:55:00;;;;;;;0.00;0.00;;;;;;;;;;4970820;28;20202;-77
2023/01/23 14:57:35;;;;;;;0.10;0.10;;;;;;;;;;4964605;28;20206;-77
2023/01/23 15:00:04;;;;;;;0.00;0.00;;;;;;;;;;4971940;28;20743;-77
2023/01/23 15:02:34;;;;;;;0.00;0.00;;;;;;;;;;4955248;29;20210;-77
2023/01/23 15:05:17;;;;;;;0.00;0.00;;;;;;;;;;4967151;28;20312;-77
2023/01/23 15:07:47;;;;;;;0.00;0.00;;;;;;;;;;4974133;28;20262;-77
2023/01/23 15:10:17;;;;;;;0.00;0.00;;;;;;;;;;4972642;28;20206;-78
2023/01/23 15:12:53;;;;;;;0.00;0.00;;;;;;;;;;4974273;28;20588;-77
2023/01/23 15:15:22;;;;;;;0.00;0.00;;;;;;;;;;4973326;28;20218;-79
2023/01/23 15:17:51;;;;;;;0.00;0.00;;;;;;;;;;4974048;28;20229;-78
2023/01/23 15:20:41;;;;;;;0.00;0.00;;;;;;;;;;4973663;28;20617;-78
2023/01/23 15:23:27;;;;;;;0.00;0.00;;;;;;;;;;4969672;28;20210;-79
2023/01/23 15:26:12;;;;;;;0.03;0.03;;;;;;;;;;4974134;28;20201;-78
2023/01/23 15:28:41;;;;;;;0.00;0.00;;;;;;;;;;4954752;28;20236;-78
2023/01/23 15:31:23;;;;;;;0.00;0.00;;;;;;;;;;4954509;29;20211;-78
2023/01/23 15:33:52;;;;;;;0.00;0.00;;;;;;;;;;4960696;28;20204;-78
2023/01/23 15:36:25;;;;;;;0.00;0.00;;;;;;;;;;4971107;28;20671;-78
2023/01/23 15:38:55;;;;;;;0.00;0.00;;;;;;;;;;4973185;28;20218;-78
2023/01/23 15:41:38;;;;;;;0.10;0.10;;;;;;;;;;4973769;28;20234;-77